createdAt,value
2018-07-23T00:01:19.775Z,13.23
2018-07-23T00:03:50.687Z,12.80
2018-07-23T00:06:20.910Z,11.93
2018-07-23T00:08:55.347Z,11.90
2018-07-23T00:11:26.539Z,12.20
2018-07-23T00:13:57.395Z,12.17
2018-07-23T00:16:30.071Z,11.73
2018-07-23T00:19:01.314Z,11.57
2018-07-23T00:21:32.217Z,11.73
2018-07-23T00:24:03.727Z,11.30
2018-07-23T00:26:38.427Z,11.40
2018-07-23T00:29:09.037Z,12.20
2018-07-23T00:31:40.303Z,11.60
2018-07-23T00:34:10.786Z,11.77
2018-07-23T00:36:41.552Z,11.40
2018-07-23T00:39:11.774Z,11.73
2018-07-23T00:41:46.392Z,10.93
2018-07-23T00:44:17.490Z,11.77
2018-07-23T00:46:53.211Z,10.73
2018-07-23T00:49:24.495Z,11.27
2018-07-23T00:51:55.573Z,12.07
2018-07-23T00:54:25.910Z,12.50
2018-07-23T00:56:55.993Z,11.80
2018-07-23T00:59:27.109Z,11.17
2018-07-23T01:02:00.064Z,11.20
2018-07-23T01:04:32.892Z,11.17
2018-07-23T01:07:04.511Z,11.00
2018-07-23T01:09:35.359Z,11.40
2018-07-23T01:12:07.557Z,11.30
2018-07-23T01:14:38.527Z,11.60
2018-07-23T01:17:10.394Z,11.20
2018-07-23T01:19:43.423Z,11.67
2018-07-23T01:22:15.977Z,11.90
2018-07-23T01:24:46.671Z,12.17
2018-07-23T01:27:16.887Z,13.93
2018-07-23T01:29:47.024Z,10.77
2018-07-23T01:32:18.943Z,11.87
2018-07-23T01:34:49.209Z,12.30
2018-07-23T01:37:24.452Z,11.77
2018-07-23T01:39:55.107Z,11.30
2018-07-23T01:42:25.514Z,12.30
2018-07-23T01:44:57.017Z,11.70
2018-07-23T01:47:27.761Z,12.10
2018-07-23T01:49:58.621Z,12.43
2018-07-23T01:52:29.358Z,12.53
2018-07-23T01:54:59.486Z,12.73
2018-07-23T01:57:32.766Z,14.07
2018-07-23T02:00:05.557Z,12.53
2018-07-23T02:02:36.746Z,11.80
2018-07-23T02:05:07.381Z,12.80
2018-07-23T02:07:37.672Z,11.80
2018-07-23T02:10:07.911Z,11.70
2018-07-23T02:12:38.411Z,12.07
2018-07-23T02:15:08.658Z,17.10
2018-07-23T02:17:39.497Z,12.67
2018-07-23T02:20:10.001Z,12.77
2018-07-23T02:22:40.186Z,12.40
2018-07-23T02:25:10.488Z,12.40
2018-07-23T02:27:41.051Z,11.80
2018-07-23T02:30:11.444Z,11.13
2018-07-23T02:32:41.688Z,11.03
2018-07-23T02:35:16.052Z,12.07
2018-07-23T02:37:46.641Z,11.70
2018-07-23T02:40:16.877Z,11.97
2018-07-23T02:42:49.682Z,10.77
2018-07-23T02:45:19.806Z,11.57
2018-07-23T02:47:51.003Z,11.37
2018-07-23T02:50:22.583Z,10.30
2018-07-23T02:52:54.632Z,10.83
2018-07-23T02:55:24.887Z,11.33
2018-07-23T02:57:55.983Z,11.73
2018-07-23T03:00:29.863Z,12.00
2018-07-23T03:03:00.164Z,12.70
2018-07-23T03:05:31.273Z,12.47
2018-07-23T03:08:02.771Z,12.67
2018-07-23T03:10:33.032Z,11.60
2018-07-23T03:13:03.256Z,11.53
2018-07-23T03:15:34.028Z,11.70
2018-07-23T03:18:06.656Z,12.13
2018-07-23T03:20:37.490Z,12.63
2018-07-23T03:23:07.803Z,12.90
2018-07-23T03:25:39.159Z,12.03
2018-07-23T03:28:09.426Z,11.90
2018-07-23T03:30:39.702Z,13.43
2018-07-23T03:33:09.843Z,12.57
2018-07-23T03:35:40.091Z,15.13
2018-07-23T03:38:10.417Z,12.67
2018-07-23T03:40:41.292Z,12.93
2018-07-23T03:43:11.925Z,12.73
2018-07-23T03:45:43.168Z,12.33
2018-07-23T03:48:19.142Z,12.73
2018-07-23T03:50:49.401Z,13.17
2018-07-23T03:53:19.562Z,13.03
2018-07-23T03:55:50.440Z,12.87
2018-07-23T03:58:20.614Z,13.60
2018-07-23T04:00:50.818Z,13.30
2018-07-23T04:03:21.224Z,13.33
2018-07-23T04:05:55.209Z,12.67
2018-07-23T04:08:25.454Z,13.60
2018-07-23T04:10:56.520Z,12.73
2018-07-23T04:13:26.945Z,13.57
2018-07-23T04:15:57.149Z,14.07
2018-07-23T04:18:27.269Z,13.33
2018-07-23T04:20:58.455Z,13.33
2018-07-23T04:23:29.263Z,14.23
2018-07-23T04:25:59.362Z,14.10
2018-07-23T04:28:29.534Z,13.97
2018-07-23T04:30:59.737Z,14.27
2018-07-23T04:33:30.463Z,14.17
2018-07-23T04:36:00.929Z,14.17
2018-07-23T04:38:33.792Z,14.33
2018-07-23T04:41:04.312Z,14.13
2018-07-23T04:43:34.702Z,14.73
2018-07-23T04:46:06.906Z,13.83
2018-07-23T04:48:37.302Z,15.10
2018-07-23T04:51:08.092Z,15.10
2018-07-23T04:53:38.272Z,14.13
2018-07-23T04:56:08.601Z,14.40
2018-07-23T04:58:39.599Z,14.97
2018-07-23T05:01:09.874Z,13.97
2018-07-23T05:03:40.706Z,14.00
2018-07-23T05:06:16.230Z,14.63
2018-07-23T05:08:46.522Z,13.67
2018-07-23T05:11:16.966Z,13.07
2018-07-23T05:13:49.714Z,13.83
2018-07-23T05:16:20.375Z,15.63
2018-07-23T05:18:50.551Z,14.27
2018-07-23T05:21:21.788Z,14.33
2018-07-23T05:23:52.038Z,14.07
2018-07-23T05:26:23.446Z,13.90
2018-07-23T05:28:53.752Z,14.50
2018-07-23T05:31:23.926Z,14.27
2018-07-23T05:33:54.804Z,14.00
2018-07-23T05:36:24.956Z,13.73
2018-07-23T05:38:55.131Z,17.23
2018-07-23T05:41:25.402Z,14.13
2018-07-23T05:43:55.930Z,13.87
2018-07-23T05:46:26.110Z,14.43
2018-07-23T05:48:58.417Z,15.07
2018-07-23T05:51:28.587Z,16.30
2018-07-23T05:53:58.762Z,14.80
2018-07-23T05:56:28.923Z,15.33
2018-07-23T05:58:59.421Z,15.60
2018-07-23T06:01:31.208Z,15.70
2018-07-23T06:04:04.783Z,15.50
2018-07-23T06:06:35.443Z,16.13
2018-07-23T06:09:09.376Z,16.00
2018-07-23T06:11:41.061Z,18.00
2018-07-23T06:14:12.469Z,17.97
2018-07-23T06:16:49.605Z,17.90
2018-07-23T06:19:21.447Z,17.63
2018-07-23T06:21:51.585Z,17.73
2018-07-23T06:24:25.714Z,18.13
2018-07-23T06:26:56.521Z,17.53
2018-07-23T06:29:28.066Z,20.37
2018-07-23T06:31:58.671Z,18.27
2018-07-23T06:34:29.590Z,17.73
2018-07-23T06:36:59.758Z,19.50
2018-07-23T06:39:29.980Z,18.57
2018-07-23T06:42:01.211Z,18.40
2018-07-23T06:44:31.664Z,18.53
2018-07-23T06:47:02.242Z,17.93
2018-07-23T06:49:32.493Z,17.97
2018-07-23T06:52:07.893Z,17.97
2018-07-23T06:54:38.277Z,18.43
2018-07-23T06:57:09.813Z,17.10
2018-07-23T06:59:40.734Z,16.73
2018-07-23T07:02:11.099Z,17.73
2018-07-23T07:04:41.765Z,17.17
2018-07-23T07:07:14.397Z,17.20
2018-07-23T07:09:46.027Z,16.83
2018-07-23T07:12:16.235Z,17.70
2018-07-23T07:14:47.686Z,17.73
2018-07-23T07:17:20.637Z,15.60
2018-07-23T07:19:51.650Z,16.97
2018-07-23T07:22:21.829Z,16.27
2018-07-23T07:24:52.545Z,14.70
2018-07-23T07:27:25.142Z,15.53
2018-07-23T07:29:57.141Z,16.57
2018-07-23T07:32:28.357Z,14.37
2018-07-23T07:34:58.438Z,13.60
2018-07-23T07:37:28.856Z,13.83
2018-07-23T07:40:00.509Z,12.13
2018-07-23T07:42:31.298Z,12.37
2018-07-23T07:45:03.782Z,13.30
2018-07-23T07:47:36.972Z,13.43
2018-07-23T07:50:07.730Z,13.50
2018-07-23T07:52:38.391Z,12.03
2018-07-23T07:55:09.046Z,12.30
2018-07-23T07:57:39.341Z,12.90
2018-07-23T08:00:10.217Z,13.47
2018-07-23T08:02:41.601Z,12.90
2018-07-23T08:05:11.913Z,17.43
2018-07-23T08:07:43.080Z,13.30
2018-07-23T08:10:17.388Z,15.07
2018-07-23T08:12:49.575Z,14.03
2018-07-23T08:15:25.050Z,13.53
2018-07-23T08:17:58.919Z,15.00
2018-07-23T08:20:29.312Z,14.60
2018-07-23T08:23:00.240Z,12.23
2018-07-23T08:25:30.777Z,15.10
2018-07-23T08:28:01.478Z,14.30
2018-07-23T08:30:34.786Z,14.83
2018-07-23T08:33:07.494Z,15.00
2018-07-23T08:35:45.219Z,17.97
2018-07-23T08:38:18.517Z,20.30
2018-07-23T08:40:56.093Z,13.83
2018-07-23T08:43:29.416Z,12.60
2018-07-23T08:46:01.011Z,16.33
2018-07-23T08:48:31.659Z,12.17
2018-07-23T08:51:08.811Z,12.57
2018-07-23T08:53:41.223Z,12.53
2018-07-23T08:56:18.551Z,15.93
2018-07-23T08:58:50.466Z,10.17
2018-07-23T09:01:21.460Z,11.60
2018-07-23T09:03:52.465Z,9.53
2018-07-23T09:06:24.981Z,10.17
2018-07-23T09:08:57.592Z,11.60
2018-07-23T09:11:28.758Z,15.80
2018-07-23T09:13:59.365Z,9.33
2018-07-23T09:16:32.271Z,12.63
2018-07-23T09:19:08.364Z,10.20
2018-07-23T09:21:38.541Z,11.73
2018-07-23T09:24:13.693Z,12.13
2018-07-23T09:26:44.964Z,12.60
2018-07-23T09:29:15.996Z,10.90
2018-07-23T09:31:48.609Z,12.27
2018-07-23T09:34:19.483Z,15.17
2018-07-23T09:36:49.648Z,11.90
2018-07-23T09:39:21.060Z,14.83
2018-07-23T09:41:51.226Z,11.13
2018-07-23T09:44:23.107Z,11.70
2018-07-23T09:46:55.284Z,11.90
2018-07-23T09:49:25.496Z,10.07
2018-07-23T09:51:56.495Z,10.17
2018-07-23T09:54:27.231Z,13.60
2018-07-23T09:56:57.347Z,11.17
2018-07-23T09:59:27.567Z,10.80
2018-07-23T10:02:00.888Z,11.97
2018-07-23T10:04:37.602Z,13.27
2018-07-23T10:07:07.734Z,8.93
2018-07-23T10:09:37.940Z,11.80
2018-07-23T10:12:09.712Z,10.37
2018-07-23T10:14:40.253Z,8.40
2018-07-23T10:17:10.977Z,9.63
2018-07-23T10:19:41.177Z,11.87
2018-07-23T10:22:11.939Z,8.37
2018-07-23T10:24:43.993Z,9.47
2018-07-23T10:27:15.223Z,10.57
2018-07-23T10:29:46.282Z,7.73
2018-07-23T10:32:18.154Z,7.60
2018-07-23T10:34:48.639Z,7.57
2018-07-23T10:37:19.816Z,8.37
2018-07-23T10:39:52.078Z,7.10
2018-07-23T10:42:23.263Z,7.10
2018-07-23T10:44:54.515Z,7.50
2018-07-23T10:47:25.986Z,7.87
2018-07-23T10:50:00.532Z,7.07
2018-07-23T10:52:30.998Z,6.90
2018-07-23T10:55:02.431Z,7.47
2018-07-23T10:57:33.588Z,6.97
2018-07-23T11:00:04.265Z,10.93
2018-07-23T11:02:41.841Z,7.57
2018-07-23T11:05:13.518Z,8.30
2018-07-23T11:08:10.754Z,6.80
2018-07-23T11:13:40.047Z,8.00
2018-07-23T11:16:12.267Z,6.83
2018-07-23T11:18:42.664Z,6.60
2018-07-23T11:21:13.593Z,6.97
2018-07-23T11:23:43.818Z,5.90
2018-07-23T11:26:15.558Z,5.93
2018-07-23T11:28:46.378Z,9.70
2018-07-23T11:31:17.046Z,5.80
2018-07-23T11:33:48.469Z,6.77
2018-07-23T11:36:19.134Z,5.40
2018-07-23T11:38:53.361Z,8.50
2018-07-23T11:41:26.980Z,5.83
2018-07-23T11:43:57.734Z,6.37
2018-07-23T11:46:28.882Z,6.00
2018-07-23T11:48:59.474Z,10.53
2018-07-23T11:51:33.381Z,6.50
2018-07-23T11:54:04.523Z,5.37
2018-07-23T11:56:37.015Z,8.90
2018-07-23T11:59:08.493Z,5.87
2018-07-23T12:01:38.901Z,6.77
2018-07-23T12:04:12.494Z,5.43
2018-07-23T12:06:43.486Z,5.40
2018-07-23T12:09:14.710Z,5.70
2018-07-23T12:11:46.441Z,5.07
2018-07-23T12:14:18.439Z,4.70
2018-07-23T12:16:50.792Z,6.57
2018-07-23T12:19:31.289Z,5.70
2018-07-23T12:22:05.300Z,7.07
2018-07-23T12:24:39.001Z,5.73
2018-07-23T12:27:10.038Z,4.87
2018-07-23T12:29:40.196Z,7.97
2018-07-23T12:32:12.996Z,7.43
2018-07-23T12:34:45.761Z,4.90
2018-07-23T12:37:16.635Z,5.20
2018-07-23T12:39:55.434Z,5.10
2018-07-23T12:42:26.529Z,9.77
2018-07-23T12:44:57.518Z,4.97
2018-07-23T12:47:32.406Z,6.00
2018-07-23T12:50:02.957Z,6.20
2018-07-23T12:52:38.741Z,6.33
2018-07-23T12:55:13.309Z,4.53
2018-07-23T12:57:47.799Z,10.67
2018-07-23T13:00:18.679Z,4.90
2018-07-23T13:02:50.190Z,6.50
2018-07-23T13:05:24.303Z,6.67
2018-07-23T13:07:55.441Z,5.40
2018-07-23T13:10:27.569Z,6.90
2018-07-23T13:12:59.126Z,5.40
2018-07-23T13:15:31.340Z,5.17
2018-07-23T13:18:04.516Z,4.80
2018-07-23T13:20:35.479Z,7.97
2018-07-23T13:23:07.622Z,7.13
2018-07-23T13:25:40.113Z,5.23
2018-07-23T13:28:11.836Z,5.77
2018-07-23T13:30:50.663Z,6.50
2018-07-23T13:33:46.754Z,7.20
2018-07-23T13:36:17.861Z,4.83
2018-07-23T13:38:51.574Z,7.13
2018-07-23T13:41:22.715Z,5.50
2018-07-23T13:43:53.589Z,5.70
2018-07-23T13:46:27.701Z,6.43
2018-07-23T13:49:01.534Z,5.63
2018-07-23T13:51:36.231Z,6.40
2018-07-23T13:54:14.611Z,6.70
2018-07-23T13:56:47.096Z,8.60
2018-07-23T13:59:17.335Z,5.67
2018-07-23T14:01:47.811Z,5.73
2018-07-23T14:04:19.676Z,8.03
2018-07-23T14:06:50.567Z,7.67
2018-07-23T14:09:21.238Z,6.03
2018-07-23T14:11:52.135Z,7.20
2018-07-23T14:14:23.329Z,6.30
2018-07-23T14:16:53.693Z,7.03
2018-07-23T14:19:26.934Z,7.07
2018-07-23T14:22:01.964Z,7.27
2018-07-23T14:24:33.384Z,8.00
2018-07-23T14:27:04.280Z,8.03
2018-07-23T14:29:35.034Z,6.00
2018-07-23T14:32:07.840Z,8.07
2018-07-23T14:34:39.234Z,5.67
2018-07-23T14:37:10.145Z,5.70
2018-07-23T14:39:40.380Z,6.30
2018-07-23T14:42:10.607Z,7.13
2018-07-23T14:44:42.252Z,5.17
2018-07-23T14:47:14.031Z,6.53
2018-07-23T14:49:44.275Z,5.30
2018-07-23T14:52:17.429Z,5.87
2018-07-23T14:54:47.631Z,5.30
2018-07-23T14:57:17.868Z,6.43
2018-07-23T14:59:51.605Z,5.67
2018-07-23T15:02:22.838Z,6.27
2018-07-23T15:04:53.558Z,5.40
2018-07-23T15:07:25.194Z,5.60
2018-07-23T15:09:56.141Z,6.77
2018-07-23T15:12:27.533Z,8.83
2018-07-23T15:14:59.278Z,7.17
2018-07-23T15:17:39.301Z,6.00
2018-07-23T15:20:12.687Z,6.53
2018-07-23T15:22:43.941Z,6.23
2018-07-23T15:25:15.504Z,7.93
2018-07-23T15:27:46.396Z,7.33
2018-07-23T15:30:16.784Z,4.77
2018-07-23T15:32:49.090Z,7.63
2018-07-23T15:35:19.926Z,4.67
2018-07-23T15:37:50.439Z,6.07
2018-07-23T15:40:21.467Z,7.17
2018-07-23T15:43:04.881Z,7.53
2018-07-23T15:45:38.809Z,4.43
2018-07-23T15:48:09.598Z,4.87
2018-07-23T15:50:44.923Z,5.57
2018-07-23T15:53:17.285Z,6.30
2018-07-23T15:55:49.573Z,5.57
2018-07-23T15:58:21.773Z,6.87
2018-07-23T16:00:52.435Z,5.10
2018-07-23T16:03:22.952Z,6.90
2018-07-23T16:05:54.588Z,6.77
2018-07-23T16:08:25.217Z,5.50
2018-07-23T16:10:55.632Z,5.00
2018-07-23T16:13:26.963Z,9.53
2018-07-23T16:15:57.931Z,4.93
2018-07-23T16:18:29.933Z,6.90
2018-07-23T16:21:01.340Z,6.80
2018-07-23T16:23:33.504Z,13.23
2018-07-23T16:26:05.273Z,6.47
2018-07-23T16:28:35.491Z,8.40
2018-07-23T16:31:12.436Z,6.30
2018-07-23T16:33:42.563Z,6.27
2018-07-23T16:36:13.484Z,6.53
2018-07-23T16:38:46.366Z,9.23
2018-07-23T16:41:20.871Z,5.87
2018-07-23T16:43:55.530Z,4.97
2018-07-23T16:46:27.000Z,5.30
2018-07-23T16:48:59.740Z,5.73
2018-07-23T16:51:30.190Z,4.60
2018-07-23T16:54:02.424Z,4.80
2018-07-23T16:56:34.640Z,4.40
2018-07-23T16:59:06.361Z,4.67
2018-07-23T17:01:39.052Z,6.83
2018-07-23T17:04:13.150Z,7.00
2018-07-23T17:06:43.720Z,4.53
2018-07-23T17:09:14.332Z,6.30
2018-07-23T17:11:45.644Z,5.73
2018-07-23T17:14:17.415Z,5.03
2018-07-23T17:16:47.837Z,5.07
2018-07-23T17:19:20.471Z,7.70
2018-07-23T17:21:56.819Z,6.13
2018-07-23T17:24:29.475Z,5.47
2018-07-23T17:27:03.704Z,6.93
2018-07-23T17:29:34.579Z,5.10
2018-07-23T17:32:08.152Z,4.60
2018-07-23T17:34:40.463Z,9.30
2018-07-23T17:37:11.891Z,4.67
2018-07-23T17:39:44.349Z,8.03
2018-07-23T17:42:14.850Z,8.83
2018-07-23T17:44:46.639Z,6.00
2018-07-23T17:47:18.314Z,5.50
2018-07-23T17:49:49.427Z,7.43
2018-07-23T17:52:19.595Z,6.97
2018-07-23T17:54:50.240Z,6.23
2018-07-23T17:57:23.674Z,6.47
2018-07-23T17:59:55.890Z,8.33
2018-07-23T18:02:30.905Z,6.57
2018-07-23T18:05:01.748Z,8.43
2018-07-23T18:07:33.707Z,8.47
2018-07-23T18:10:04.583Z,8.30
2018-07-23T18:12:35.655Z,9.67
2018-07-23T18:15:06.482Z,8.20
2018-07-23T18:17:48.793Z,7.83
2018-07-23T18:20:23.589Z,5.20
2018-07-23T18:22:55.475Z,11.20
2018-07-23T18:25:26.692Z,6.37
2018-07-23T18:27:58.037Z,7.33
2018-07-23T18:30:28.314Z,9.83
2018-07-23T18:33:01.392Z,7.27
2018-07-23T18:35:35.534Z,6.67
2018-07-23T18:38:06.583Z,6.57
2018-07-23T18:40:38.156Z,7.70
2018-07-23T18:43:10.302Z,7.53
2018-07-23T18:45:44.469Z,5.10
2018-07-23T18:48:32.395Z,15.13
2018-07-23T18:51:03.838Z,8.47
2018-07-23T18:53:36.680Z,6.90
2018-07-23T18:56:08.426Z,9.13
2018-07-23T18:58:40.263Z,6.93
2018-07-23T19:01:14.075Z,7.57
2018-07-23T19:09:35.622Z,6.00
2018-07-23T19:12:07.438Z,6.27
2018-07-23T19:14:39.599Z,6.97
2018-07-23T19:17:12.619Z,5.50
2018-07-23T19:19:43.380Z,7.83
2018-07-23T19:22:14.938Z,5.93
2018-07-23T19:24:57.419Z,6.87
2018-07-23T19:27:30.604Z,6.30
2018-07-23T19:30:05.426Z,6.10
2018-07-23T19:32:37.176Z,7.37
2018-07-23T19:35:11.276Z,7.00
2018-07-23T19:37:43.064Z,8.17
2018-07-23T19:40:20.257Z,7.70
2018-07-23T19:42:51.800Z,6.83
2018-07-23T19:45:26.332Z,7.47
2018-07-23T19:47:57.657Z,6.20
2018-07-23T19:50:37.389Z,6.80
2018-07-23T19:53:07.985Z,6.80
2018-07-23T19:55:45.688Z,11.73
2018-07-23T19:58:16.855Z,9.00
2018-07-23T20:00:50.409Z,6.90
2018-07-23T20:03:23.052Z,6.57
2018-07-23T20:05:56.427Z,6.60
2018-07-23T20:08:32.838Z,6.67
2018-07-23T20:11:03.747Z,8.70
2018-07-23T20:13:37.411Z,8.30
2018-07-23T20:16:16.686Z,6.40
2018-07-23T20:18:48.837Z,6.83
2018-07-23T20:21:23.223Z,9.53
2018-07-23T20:24:06.435Z,8.43
2018-07-23T20:26:39.686Z,7.60
2018-07-23T20:29:10.405Z,7.10
2018-07-23T20:31:44.034Z,8.00
2018-07-23T20:34:17.599Z,7.33
2018-07-23T20:36:47.668Z,8.03
2018-07-23T20:39:25.639Z,7.93
2018-07-23T20:41:56.771Z,7.97
2018-07-23T20:44:28.845Z,8.50
2018-07-23T20:47:01.015Z,10.57
2018-07-23T20:49:33.820Z,8.87
2018-07-23T20:52:11.616Z,8.73
2018-07-23T20:54:45.030Z,8.37
2018-07-23T20:57:16.400Z,8.73
2018-07-23T20:59:54.707Z,9.00
2018-07-23T21:02:28.128Z,8.43
2018-07-23T21:05:00.871Z,8.10
2018-07-23T21:07:35.105Z,8.30
2018-07-23T21:10:09.985Z,14.43
2018-07-23T21:12:44.099Z,11.97
2018-07-23T21:15:16.532Z,9.97
2018-07-23T21:17:48.255Z,8.67
2018-07-23T21:20:18.460Z,8.83
2018-07-23T21:22:49.695Z,10.93
2018-07-23T21:25:20.237Z,11.47
2018-07-23T21:27:51.448Z,9.63
2018-07-23T21:30:22.548Z,9.53
2018-07-23T21:32:53.254Z,8.93
2018-07-23T21:35:26.467Z,9.20
2018-07-23T21:37:56.556Z,8.80
2018-07-23T21:40:27.406Z,10.27
2018-07-23T21:42:57.903Z,9.90
2018-07-23T21:45:30.319Z,9.87
2018-07-23T21:48:03.300Z,9.43
2018-07-23T21:50:34.307Z,9.00
2018-07-23T21:53:05.282Z,9.87
2018-07-23T21:55:39.196Z,9.70
2018-07-23T21:58:10.316Z,9.50
2018-07-23T22:00:43.720Z,8.80
2018-07-23T22:03:14.485Z,9.27
2018-07-23T22:05:46.691Z,11.63
2018-07-23T22:08:18.208Z,9.07
2018-07-23T22:10:48.745Z,10.67
2018-07-23T22:13:20.974Z,11.23
2018-07-23T22:15:53.792Z,10.00
2018-07-23T22:18:24.956Z,9.27
2018-07-23T22:20:56.970Z,9.47
2018-07-23T22:23:27.675Z,10.73
2018-07-23T22:25:57.762Z,9.87
2018-07-23T22:28:29.531Z,9.70
2018-07-23T22:31:00.519Z,9.67
2018-07-23T22:33:33.143Z,10.07
2018-07-23T22:36:03.872Z,10.67
2018-07-23T22:38:36.059Z,9.13
2018-07-23T22:41:06.249Z,11.57
2018-07-23T22:43:38.460Z,9.33
2018-07-23T22:46:12.121Z,9.80
2018-07-23T22:48:44.457Z,10.97
2018-07-23T22:51:15.549Z,12.57
2018-07-23T22:53:46.356Z,10.17
2018-07-23T22:56:17.459Z,13.03
2018-07-23T22:58:48.372Z,10.30
2018-07-23T23:01:18.994Z,10.53
2018-07-23T23:03:52.367Z,10.50
2018-07-23T23:06:27.282Z,10.67
2018-07-23T23:08:58.405Z,11.33
2018-07-23T23:11:29.784Z,9.63
2018-07-23T23:14:00.223Z,9.43
2018-07-23T23:16:31.400Z,9.53
2018-07-23T23:19:03.068Z,9.90
2018-07-23T23:21:36.941Z,10.17
2018-07-23T23:24:07.693Z,9.60
2018-07-23T23:26:38.574Z,10.50
2018-07-23T23:29:09.219Z,10.90
2018-07-23T23:31:39.821Z,10.43
2018-07-23T23:34:09.911Z,10.17
2018-07-23T23:36:40.095Z,10.13
2018-07-23T23:39:12.227Z,10.60
2018-07-23T23:41:42.349Z,10.23
2018-07-23T23:44:12.424Z,11.53
2018-07-23T23:46:42.583Z,9.57
2018-07-23T23:49:14.494Z,11.20
2018-07-23T23:51:44.633Z,11.23
2018-07-23T23:54:14.704Z,10.47
2018-07-23T23:56:44.900Z,11.17
2018-07-23T23:59:15.417Z,9.67
